createdAt,value
2023-05-25T00:00:53.470Z,3.33
2023-05-25T00:03:26.871Z,2.38
2023-05-25T00:05:53.387Z,2.42
2023-05-25T00:08:19.855Z,2.60
2023-05-25T00:10:46.370Z,2.70
2023-05-25T00:13:12.795Z,2.22
2023-05-25T00:15:39.265Z,3.90
2023-05-25T00:18:05.858Z,2.33
2023-05-25T00:20:32.379Z,3.22
2023-05-25T00:22:58.874Z,3.35
2023-05-25T00:25:25.311Z,6.53
2023-05-25T00:27:51.776Z,4.55
2023-05-25T00:30:18.232Z,3.17
2023-05-25T00:32:44.698Z,4.13
2023-05-25T00:35:11.208Z,4.43
2023-05-25T00:37:37.692Z,3.55
2023-05-25T00:40:04.163Z,6.68
2023-05-25T00:42:30.614Z,5.47
2023-05-25T00:44:57.051Z,3.70
2023-05-25T00:47:23.543Z,5.15
2023-05-25T00:49:50.005Z,5.45
2023-05-25T00:52:16.470Z,5.13
2023-05-25T00:54:42.918Z,5.22
2023-05-25T00:57:09.343Z,5.40
2023-05-25T00:59:35.916Z,3.83
2023-05-25T01:02:02.461Z,3.63
2023-05-25T01:04:29.008Z,3.67
2023-05-25T01:06:55.430Z,5.82
2023-05-25T01:09:21.891Z,5.07
2023-05-25T01:11:48.363Z,5.25
2023-05-25T01:14:14.829Z,5.88
2023-05-25T01:16:41.384Z,3.40
2023-05-25T01:19:07.887Z,3.83
2023-05-25T01:21:34.378Z,2.97
2023-05-25T01:24:00.793Z,3.90
2023-05-25T01:26:27.280Z,6.28
2023-05-25T01:28:53.714Z,3.45
2023-05-25T01:31:20.144Z,4.05
2023-05-25T01:33:46.636Z,6.25
2023-05-25T01:36:13.075Z,4.55
2023-05-25T01:38:39.512Z,4.13
2023-05-25T01:41:05.935Z,6.25
2023-05-25T01:43:32.386Z,3.03
2023-05-25T01:45:58.867Z,3.30
2023-05-25T01:48:25.368Z,2.35
2023-05-25T01:50:51.842Z,2.72
2023-05-25T01:53:18.332Z,3.58
2023-05-25T01:55:44.998Z,2.38
2023-05-25T01:58:11.560Z,2.90
2023-05-25T02:00:38.058Z,3.88
2023-05-25T02:03:04.608Z,3.42
2023-05-25T02:05:31.130Z,2.95
2023-05-25T02:07:57.616Z,2.95
2023-05-25T02:10:24.103Z,3.38
2023-05-25T02:12:50.582Z,5.35
2023-05-25T02:15:17.056Z,4.63
2023-05-25T02:17:43.585Z,2.75
2023-05-25T02:20:10.153Z,3.90
2023-05-25T02:22:36.664Z,4.43
2023-05-25T02:25:03.153Z,6.95
2023-05-25T02:27:29.638Z,4.65
2023-05-25T02:29:56.121Z,5.22
2023-05-25T02:32:22.696Z,3.40
2023-05-25T02:34:49.232Z,4.93
2023-05-25T02:37:15.718Z,3.63
2023-05-25T02:39:42.197Z,3.83
2023-05-25T02:42:08.634Z,5.50
2023-05-25T02:44:35.103Z,3.58
2023-05-25T02:47:01.799Z,3.30
2023-05-25T02:49:28.394Z,4.32
2023-05-25T02:51:54.828Z,2.92
2023-05-25T02:54:21.277Z,2.63
2023-05-25T02:56:47.729Z,3.63
2023-05-25T02:59:14.192Z,3.40
2023-05-25T03:01:40.688Z,4.65
2023-05-25T03:04:07.273Z,3.65
2023-05-25T03:06:33.802Z,3.80
2023-05-25T03:09:00.301Z,3.47
2023-05-25T03:11:26.741Z,4.75
2023-05-25T03:13:53.247Z,5.15
2023-05-25T03:16:19.852Z,3.95
2023-05-25T03:18:46.477Z,4.70
2023-05-25T03:21:12.911Z,5.32
2023-05-25T03:23:39.393Z,4.65
2023-05-25T03:26:05.831Z,5.00
2023-05-25T03:28:32.270Z,4.85
2023-05-25T03:30:58.777Z,3.70
2023-05-25T03:33:25.199Z,4.35
2023-05-25T03:35:51.632Z,4.10
2023-05-25T03:38:18.111Z,4.50
2023-05-25T03:40:44.566Z,4.63
2023-05-25T03:43:10.996Z,4.55
2023-05-25T03:45:37.456Z,3.15
2023-05-25T03:48:03.965Z,3.30
2023-05-25T03:50:30.463Z,4.32
2023-05-25T03:52:56.897Z,4.80
2023-05-25T03:55:23.323Z,4.30
2023-05-25T03:57:49.778Z,3.75
2023-05-25T04:00:16.227Z,3.15
2023-05-25T04:02:42.763Z,3.25
2023-05-25T04:05:09.278Z,2.80
2023-05-25T04:07:35.693Z,3.15
2023-05-25T04:10:02.139Z,3.33
2023-05-25T04:12:28.561Z,4.72
2023-05-25T04:14:54.976Z,3.42
2023-05-25T04:17:21.434Z,5.07
2023-05-25T04:19:47.940Z,4.50
2023-05-25T04:22:14.367Z,4.80
2023-05-25T04:24:40.783Z,4.35
2023-05-25T04:27:07.254Z,5.22
2023-05-25T04:29:33.740Z,6.68
2023-05-25T04:32:00.251Z,4.47
2023-05-25T04:34:26.728Z,4.68
2023-05-25T04:36:53.216Z,5.45
2023-05-25T04:39:19.889Z,5.95
2023-05-25T04:41:46.372Z,5.18
2023-05-25T04:44:12.863Z,5.72
2023-05-25T04:46:39.416Z,4.85
2023-05-25T04:49:05.900Z,4.88
2023-05-25T04:51:32.337Z,4.55
2023-05-25T04:53:58.839Z,4.10
2023-05-25T04:56:25.329Z,6.00
2023-05-25T04:58:51.749Z,4.57
2023-05-25T05:01:18.252Z,6.50
2023-05-25T05:03:44.823Z,5.43
2023-05-25T05:06:11.281Z,4.35
2023-05-25T05:08:37.719Z,5.75
2023-05-25T05:11:04.178Z,5.68
2023-05-25T05:13:30.644Z,4.75
2023-05-25T05:15:57.119Z,4.63
2023-05-25T05:18:23.593Z,4.68
2023-05-25T05:20:50.045Z,5.30
2023-05-25T05:23:16.594Z,5.72
2023-05-25T05:25:43.253Z,5.50
2023-05-25T05:28:09.929Z,5.07
2023-05-25T05:30:36.405Z,5.28
2023-05-25T05:33:03.064Z,4.18
2023-05-25T05:35:29.590Z,3.67
2023-05-25T05:37:56.013Z,4.93
2023-05-25T05:40:22.476Z,5.22
2023-05-25T05:42:48.951Z,5.35
2023-05-25T05:45:15.437Z,4.88
2023-05-25T05:47:41.900Z,10.60
2023-05-25T05:50:08.396Z,5.10
2023-05-25T05:52:34.866Z,7.05
2023-05-25T05:55:01.373Z,4.13
2023-05-25T05:57:27.862Z,7.05
2023-05-25T05:59:54.353Z,5.60
2023-05-25T06:02:20.956Z,5.47
2023-05-25T06:04:47.422Z,5.22
2023-05-25T06:07:13.890Z,5.55
2023-05-25T06:09:40.364Z,5.10
2023-05-25T06:12:06.783Z,4.55
2023-05-25T06:14:33.212Z,6.50
2023-05-25T06:16:59.816Z,4.40
2023-05-25T06:19:26.398Z,3.80
2023-05-25T06:21:52.862Z,6.63
2023-05-25T06:24:19.349Z,8.15
2023-05-25T06:26:45.813Z,6.20
2023-05-25T06:29:13.272Z,5.07
2023-05-25T06:31:40.736Z,4.75
2023-05-25T06:34:07.226Z,6.70
2023-05-25T06:36:33.698Z,5.20
2023-05-25T06:39:00.144Z,5.90
2023-05-25T06:41:26.619Z,4.63
2023-05-25T06:43:53.097Z,5.93
2023-05-25T06:46:19.627Z,5.95
2023-05-25T06:48:46.416Z,5.32
2023-05-25T06:51:12.925Z,4.75
2023-05-25T06:53:39.396Z,3.70
2023-05-25T06:56:05.896Z,5.45
2023-05-25T06:58:32.364Z,6.18
2023-05-25T07:00:58.789Z,3.97
2023-05-25T07:03:25.253Z,8.52
2023-05-25T07:05:51.718Z,4.95
2023-05-25T07:08:18.163Z,7.30
2023-05-25T07:10:44.599Z,4.45
2023-05-25T07:13:11.082Z,4.28
2023-05-25T07:15:37.522Z,5.68
2023-05-25T07:18:04.373Z,4.38
2023-05-25T07:20:30.963Z,6.38
2023-05-25T07:22:57.438Z,4.85
2023-05-25T07:25:23.915Z,4.75
2023-05-25T07:27:50.531Z,4.93
2023-05-25T07:30:16.966Z,6.03
2023-05-25T07:32:43.443Z,8.48
2023-05-25T07:35:10.010Z,5.97
2023-05-25T07:37:36.441Z,7.40
2023-05-25T07:40:02.856Z,5.80
2023-05-25T07:42:29.273Z,6.18
2023-05-25T07:44:55.738Z,5.82
2023-05-25T07:47:22.217Z,7.85
2023-05-25T07:49:48.713Z,5.43
2023-05-25T07:52:15.217Z,5.20
2023-05-25T07:54:41.729Z,5.50
2023-05-25T07:57:08.229Z,6.80
2023-05-25T07:59:34.739Z,6.50
2023-05-25T08:02:01.269Z,5.45
2023-05-25T08:04:27.890Z,5.60
2023-05-25T08:06:54.426Z,4.68
2023-05-25T08:09:21.066Z,4.53
2023-05-25T08:11:47.540Z,5.07
2023-05-25T08:14:13.984Z,5.88
2023-05-25T08:16:40.421Z,4.28
2023-05-25T08:19:06.928Z,5.65
2023-05-25T08:21:34.629Z,4.57
2023-05-25T08:24:01.256Z,4.82
2023-05-25T08:26:41.328Z,8.13
2023-05-25T08:29:12.312Z,4.75
2023-05-25T08:31:38.903Z,3.13
2023-05-25T08:34:05.417Z,6.00
2023-05-25T08:36:31.894Z,3.88
2023-05-25T08:38:58.339Z,2.72
2023-05-25T08:41:24.757Z,5.40
2023-05-25T08:43:51.214Z,4.75
2023-05-25T08:46:17.705Z,4.75
2023-05-25T08:48:44.264Z,3.38
2023-05-25T08:51:11.474Z,3.67
2023-05-25T08:53:38.346Z,5.18
2023-05-25T08:56:04.824Z,6.50
2023-05-25T08:58:31.300Z,3.38
2023-05-25T09:00:57.711Z,4.28
2023-05-25T09:03:24.273Z,6.25
2023-05-25T09:05:50.816Z,4.50
2023-05-25T09:08:17.281Z,2.83
2023-05-25T09:10:43.772Z,4.68
2023-05-25T09:13:21.194Z,4.82
2023-05-25T09:15:49.197Z,3.70
2023-05-25T09:18:15.711Z,4.78
2023-05-25T09:20:45.109Z,4.43
2023-05-25T09:23:12.881Z,4.63
2023-05-25T09:25:39.365Z,4.40
2023-05-25T09:28:17.561Z,4.53
2023-05-25T09:30:52.272Z,3.33
2023-05-25T09:33:18.816Z,2.83
2023-05-25T09:35:45.298Z,4.03
2023-05-25T09:38:11.878Z,3.42
2023-05-25T09:40:38.413Z,4.72
2023-05-25T09:43:04.873Z,2.53
2023-05-25T09:45:31.330Z,2.70
2023-05-25T09:47:57.835Z,4.50
2023-05-25T09:50:24.373Z,3.22
2023-05-25T09:52:51.058Z,3.70
2023-05-25T09:55:17.495Z,4.43
2023-05-25T09:57:44.004Z,3.13
2023-05-25T10:00:10.513Z,3.25
2023-05-25T10:02:37.010Z,2.40
2023-05-25T10:05:03.547Z,3.72
2023-05-25T10:07:30.117Z,4.97
2023-05-25T10:09:56.619Z,3.28
2023-05-25T10:12:23.108Z,3.70
2023-05-25T10:14:49.616Z,4.32
2023-05-25T10:17:16.071Z,3.80
2023-05-25T10:19:42.548Z,3.38
2023-05-25T10:22:09.089Z,3.38
2023-05-25T10:24:35.540Z,3.70
2023-05-25T10:27:10.807Z,4.70
2023-05-25T10:29:45.244Z,4.30
2023-05-25T10:32:11.750Z,4.18
2023-05-25T10:34:38.209Z,6.07
2023-05-25T10:37:04.667Z,5.93
2023-05-25T10:39:31.091Z,3.17
2023-05-25T10:41:57.564Z,3.92
2023-05-25T10:44:24.022Z,4.97
2023-05-25T10:46:50.630Z,4.28
2023-05-25T10:49:17.117Z,4.25
2023-05-25T10:51:43.621Z,4.03
2023-05-25T10:54:10.053Z,3.17
2023-05-25T10:56:36.547Z,3.63
2023-05-25T10:59:03.066Z,4.22
2023-05-25T11:01:29.663Z,5.65
2023-05-25T11:03:56.291Z,3.28
2023-05-25T11:06:22.829Z,5.32
2023-05-25T11:08:49.474Z,3.35
2023-05-25T11:11:15.920Z,2.53
2023-05-25T11:13:42.340Z,5.38
2023-05-25T11:16:08.818Z,4.00
2023-05-25T11:18:35.290Z,6.13
2023-05-25T11:21:01.733Z,4.28
2023-05-25T11:23:28.166Z,4.50
2023-05-25T11:25:54.644Z,4.22
2023-05-25T11:28:21.103Z,4.20
2023-05-25T11:30:47.630Z,4.55
2023-05-25T11:33:14.141Z,2.50
2023-05-25T11:35:40.615Z,3.85
2023-05-25T11:38:07.140Z,4.10
2023-05-25T11:40:33.664Z,6.50
2023-05-25T11:43:00.149Z,7.70
2023-05-25T11:45:26.577Z,5.20
2023-05-25T11:47:53.120Z,5.55
2023-05-25T11:50:19.611Z,4.20
2023-05-25T11:52:46.078Z,4.30
2023-05-25T11:55:12.547Z,4.72
2023-05-25T11:57:38.968Z,5.47
2023-05-25T12:00:05.468Z,4.25
2023-05-25T12:02:31.945Z,6.15
2023-05-25T12:04:58.580Z,7.97
2023-05-25T12:07:25.165Z,3.60
2023-05-25T12:09:51.652Z,5.13
2023-05-25T12:12:18.096Z,5.95
2023-05-25T12:14:44.530Z,6.40
2023-05-25T12:17:11.105Z,7.25
2023-05-25T12:19:37.618Z,5.18
2023-05-25T12:22:04.102Z,5.68
2023-05-25T12:24:30.532Z,5.88
2023-05-25T12:26:57.013Z,5.45
2023-05-25T12:29:23.440Z,6.05
2023-05-25T12:31:50.211Z,6.35
2023-05-25T12:34:16.705Z,6.95
2023-05-25T12:36:43.144Z,5.50
2023-05-25T12:39:09.585Z,5.30
2023-05-25T12:41:36.049Z,6.45
2023-05-25T12:44:02.505Z,6.30
2023-05-25T12:46:28.990Z,3.95
2023-05-25T12:48:55.595Z,4.97
2023-05-25T12:51:22.035Z,6.72
2023-05-25T12:53:48.469Z,9.10
2023-05-25T12:56:14.941Z,6.03
2023-05-25T12:58:41.375Z,5.57
2023-05-25T13:01:07.821Z,7.47
2023-05-25T13:03:34.251Z,6.78
2023-05-25T13:06:00.771Z,7.60
2023-05-25T13:08:27.236Z,7.57
2023-05-25T13:10:53.706Z,4.60
2023-05-25T13:13:20.272Z,8.32
2023-05-25T13:15:46.718Z,7.22
2023-05-25T13:18:13.199Z,6.45
2023-05-25T13:20:39.780Z,7.70
2023-05-25T13:23:06.294Z,6.25
2023-05-25T13:25:32.762Z,8.15
2023-05-25T13:27:59.185Z,6.05
2023-05-25T13:30:25.679Z,6.85
2023-05-25T13:32:52.197Z,5.20
2023-05-25T13:35:18.768Z,7.68
2023-05-25T13:37:45.228Z,7.05
2023-05-25T13:40:11.726Z,8.77
2023-05-25T13:42:38.165Z,8.18
2023-05-25T13:45:04.600Z,6.93
2023-05-25T13:47:31.184Z,7.50
2023-05-25T13:49:57.769Z,5.95
2023-05-25T13:52:24.272Z,7.25
2023-05-25T13:54:50.704Z,4.82
2023-05-25T13:57:17.125Z,7.82
2023-05-25T13:59:43.595Z,6.30
2023-05-25T14:02:10.175Z,4.80
2023-05-25T14:04:36.643Z,6.72
2023-05-25T14:07:03.074Z,5.90
2023-05-25T14:09:29.484Z,5.72
2023-05-25T14:11:55.958Z,5.85
2023-05-25T14:14:31.411Z,7.22
2023-05-25T14:16:58.834Z,6.95
2023-05-25T14:19:25.293Z,5.13
2023-05-25T14:21:59.752Z,6.57
2023-05-25T14:24:38.013Z,7.55
2023-05-25T14:27:04.513Z,7.68
2023-05-25T14:29:30.943Z,6.95
2023-05-25T14:31:57.502Z,6.30
2023-05-25T14:34:24.065Z,5.25
2023-05-25T14:36:50.497Z,6.68
2023-05-25T14:39:17.536Z,5.32
2023-05-25T14:41:44.066Z,8.10
2023-05-25T14:44:10.550Z,6.63
2023-05-25T14:46:37.063Z,7.47
2023-05-25T14:49:03.512Z,6.28
2023-05-25T14:51:29.928Z,6.45
2023-05-25T14:53:56.392Z,8.68
2023-05-25T14:56:22.819Z,7.20
2023-05-25T14:58:49.286Z,7.03
2023-05-25T15:01:15.790Z,7.75
2023-05-25T15:03:42.252Z,7.38
2023-05-25T15:06:08.802Z,7.00
2023-05-25T15:08:35.270Z,5.88
2023-05-25T15:11:01.732Z,7.28
2023-05-25T15:13:28.147Z,5.85
2023-05-25T15:15:54.628Z,11.15
2023-05-25T15:18:21.330Z,8.13
2023-05-25T15:20:47.893Z,7.25
2023-05-25T15:23:14.518Z,7.57
2023-05-25T15:25:40.992Z,5.72
2023-05-25T15:28:07.442Z,7.95
2023-05-25T15:30:33.865Z,7.20
2023-05-25T15:33:00.298Z,11.93
2023-05-25T15:35:26.794Z,10.30
2023-05-25T15:37:53.318Z,6.32
2023-05-25T15:40:19.798Z,8.32
2023-05-25T15:42:46.324Z,8.13
2023-05-25T15:45:12.800Z,8.65
2023-05-25T15:47:39.257Z,8.88
2023-05-25T15:50:05.754Z,8.88
2023-05-25T15:52:32.186Z,7.70
2023-05-25T15:54:58.664Z,7.15
2023-05-25T15:57:25.135Z,8.77
2023-05-25T15:59:51.613Z,7.10
2023-05-25T16:02:18.076Z,9.23
2023-05-25T16:04:44.578Z,6.13
2023-05-25T16:07:11.059Z,6.65
2023-05-25T16:09:37.562Z,6.93
2023-05-25T16:12:04.047Z,5.82
2023-05-25T16:14:30.509Z,5.60
2023-05-25T16:16:56.943Z,6.63
2023-05-25T16:19:23.509Z,7.13
2023-05-25T16:21:50.106Z,7.43
2023-05-25T16:24:16.651Z,6.68
2023-05-25T16:26:43.108Z,7.20
2023-05-25T16:29:09.578Z,7.93
2023-05-25T16:31:36.124Z,7.95
2023-05-25T16:34:02.571Z,5.28
2023-05-25T16:36:29.041Z,8.30
2023-05-25T16:38:55.514Z,8.95
2023-05-25T16:41:21.957Z,8.23
2023-05-25T16:43:48.441Z,9.05
2023-05-25T16:46:15.002Z,7.43
2023-05-25T16:48:41.513Z,5.68
2023-05-25T16:51:07.951Z,7.50
2023-05-25T16:53:34.425Z,7.13
2023-05-25T16:56:01.040Z,7.63
2023-05-25T16:58:27.551Z,5.47
2023-05-25T17:00:53.973Z,8.27
2023-05-25T17:03:20.514Z,7.13
2023-05-25T17:05:47.071Z,8.43
2023-05-25T17:08:13.569Z,5.15
2023-05-25T17:10:40.009Z,5.32
2023-05-25T17:13:06.480Z,5.47
2023-05-25T17:15:32.924Z,8.07
2023-05-25T17:17:59.425Z,5.32
2023-05-25T17:20:25.933Z,6.85
2023-05-25T17:22:52.469Z,7.50
2023-05-25T17:25:18.910Z,6.10
2023-05-25T17:27:45.392Z,10.30
2023-05-25T17:30:11.830Z,5.38
2023-05-25T17:32:38.373Z,7.40
2023-05-25T17:35:04.906Z,10.30
2023-05-25T17:37:31.358Z,8.95
2023-05-25T17:39:57.824Z,10.00
2023-05-25T17:42:24.300Z,9.40
2023-05-25T17:44:50.748Z,8.80
2023-05-25T17:47:17.173Z,9.57
2023-05-25T17:49:43.591Z,6.55
2023-05-25T17:52:12.916Z,8.88
2023-05-25T17:54:39.329Z,6.07
2023-05-25T17:57:05.833Z,6.68
2023-05-25T17:59:32.298Z,8.50
2023-05-25T18:01:58.789Z,7.75
2023-05-25T18:04:25.264Z,8.38
2023-05-25T18:06:51.732Z,9.88
2023-05-25T18:09:18.163Z,7.20
2023-05-25T18:11:44.577Z,8.50
2023-05-25T18:14:12.132Z,11.98
2023-05-25T18:16:38.587Z,7.97
2023-05-25T18:19:05.036Z,9.88
2023-05-25T18:21:31.503Z,6.88
2023-05-25T18:23:57.978Z,9.70
2023-05-25T18:26:24.456Z,8.90
2023-05-25T18:28:50.948Z,9.32
2023-05-25T18:31:17.497Z,7.22
2023-05-25T18:33:43.967Z,9.57
2023-05-25T18:36:10.394Z,6.80
2023-05-25T18:38:36.864Z,5.95
2023-05-25T18:41:03.361Z,6.90
2023-05-25T18:43:29.849Z,7.85
2023-05-25T18:45:56.376Z,7.68
2023-05-25T18:48:22.829Z,7.05
2023-05-25T18:50:49.427Z,11.45
2023-05-25T18:53:15.931Z,8.68
2023-05-25T18:55:42.660Z,7.75
2023-05-25T18:58:09.192Z,6.18
2023-05-25T19:00:35.647Z,6.78
2023-05-25T19:03:02.228Z,8.32
2023-05-25T19:05:28.715Z,6.63
2023-05-25T19:07:59.717Z,5.82
2023-05-25T19:10:26.613Z,7.53
2023-05-25T19:12:53.085Z,8.98
2023-05-25T19:15:19.817Z,5.65
2023-05-25T19:17:46.351Z,7.78
2023-05-25T19:20:12.903Z,5.40
2023-05-25T19:22:39.374Z,6.47
2023-05-25T19:25:05.849Z,5.75
2023-05-25T19:27:32.302Z,8.80
2023-05-25T19:29:58.724Z,8.18
2023-05-25T19:32:25.210Z,10.75
2023-05-25T19:34:51.756Z,7.03
2023-05-25T19:37:18.229Z,6.68
2023-05-25T19:39:44.662Z,6.28
2023-05-25T19:42:11.158Z,8.02
2023-05-25T19:44:37.607Z,5.80
2023-05-25T19:47:04.074Z,7.03
2023-05-25T19:49:30.498Z,6.18
2023-05-25T19:51:56.994Z,7.53
2023-05-25T19:54:23.443Z,8.98
2023-05-25T19:56:49.905Z,6.35
2023-05-25T19:59:16.408Z,6.05
2023-05-25T20:01:42.932Z,7.40
2023-05-25T20:04:09.415Z,7.70
2023-05-25T20:06:35.915Z,7.03
2023-05-25T20:09:02.501Z,5.55
2023-05-25T20:11:28.993Z,7.30
2023-05-25T20:13:55.428Z,6.28
2023-05-25T20:16:21.900Z,7.25
2023-05-25T20:18:48.476Z,8.52
2023-05-25T20:21:14.929Z,7.40
2023-05-25T20:23:41.361Z,8.77
2023-05-25T20:26:07.846Z,7.85
2023-05-25T20:28:34.576Z,10.45
2023-05-25T20:31:01.477Z,7.57
2023-05-25T20:33:27.906Z,7.32
2023-05-25T20:35:54.392Z,8.55
2023-05-25T20:38:20.868Z,9.55
2023-05-25T20:40:47.346Z,8.57
2023-05-25T20:43:13.828Z,8.35
2023-05-25T20:45:40.336Z,6.68
2023-05-25T20:48:06.901Z,5.78
2023-05-25T20:50:33.392Z,6.93
2023-05-25T20:52:59.850Z,9.73
2023-05-25T20:55:26.287Z,6.10
2023-05-25T20:57:52.719Z,5.28
2023-05-25T21:00:19.130Z,6.95
2023-05-25T21:02:45.986Z,11.13
2023-05-25T21:05:12.537Z,7.65
2023-05-25T21:07:39.000Z,7.55
2023-05-25T21:10:05.773Z,7.55
2023-05-25T21:12:32.229Z,9.40
2023-05-25T21:14:58.682Z,8.05
2023-05-25T21:17:25.176Z,7.13
2023-05-25T21:19:51.833Z,9.48
2023-05-25T21:22:18.369Z,7.13
2023-05-25T21:24:44.912Z,8.93
2023-05-25T21:27:11.445Z,8.55
2023-05-25T21:29:37.868Z,8.07
2023-05-25T21:32:04.606Z,9.18
2023-05-25T21:34:31.087Z,6.78
2023-05-25T21:36:57.556Z,5.43
2023-05-25T21:39:23.993Z,7.75
2023-05-25T21:41:50.673Z,8.10
2023-05-25T21:44:17.178Z,8.77
2023-05-25T21:46:43.624Z,8.93
2023-05-25T21:49:10.052Z,9.15
2023-05-25T21:51:36.531Z,8.02
2023-05-25T21:54:03.068Z,6.63
2023-05-25T21:56:29.579Z,8.18
2023-05-25T21:58:56.030Z,8.85
2023-05-25T22:01:22.496Z,9.20
2023-05-25T22:03:48.995Z,7.35
2023-05-25T22:06:15.489Z,8.88
2023-05-25T22:08:41.966Z,11.15
2023-05-25T22:11:08.511Z,10.23
2023-05-25T22:13:35.035Z,8.68
2023-05-25T22:16:01.497Z,7.90
2023-05-25T22:18:27.997Z,8.65
2023-05-25T22:20:54.574Z,8.65
2023-05-25T22:23:21.102Z,7.78
2023-05-25T22:25:47.683Z,6.18
2023-05-25T22:28:14.171Z,5.55
2023-05-25T22:30:40.708Z,9.98
2023-05-25T22:33:07.166Z,7.50
2023-05-25T22:35:33.769Z,6.03
2023-05-25T22:38:00.216Z,11.48
2023-05-25T22:40:26.743Z,7.07
2023-05-25T22:42:53.258Z,6.25
2023-05-25T22:45:19.797Z,8.68
2023-05-25T22:47:46.312Z,9.02
2023-05-25T22:50:12.788Z,6.43
2023-05-25T22:52:39.241Z,6.38
2023-05-25T22:55:05.664Z,6.35
2023-05-25T22:57:32.124Z,7.68
2023-05-25T22:59:58.624Z,10.57
2023-05-25T23:02:25.127Z,7.28
2023-05-25T23:04:51.605Z,6.20
2023-05-25T23:07:18.037Z,7.35
2023-05-25T23:09:44.454Z,7.28
2023-05-25T23:12:10.937Z,9.65
2023-05-25T23:14:37.350Z,7.65
2023-05-25T23:17:03.813Z,6.15
2023-05-25T23:19:30.243Z,6.28
2023-05-25T23:21:56.716Z,8.02
2023-05-25T23:24:23.199Z,5.85
2023-05-25T23:26:49.810Z,7.43
2023-05-25T23:29:16.328Z,6.68
2023-05-25T23:31:42.825Z,7.00
2023-05-25T23:34:09.290Z,7.00
2023-05-25T23:36:35.709Z,7.97
2023-05-25T23:39:02.124Z,7.65
2023-05-25T23:41:28.562Z,9.25
2023-05-25T23:43:54.990Z,7.88
2023-05-25T23:46:21.484Z,7.05
2023-05-25T23:48:48.001Z,6.53
2023-05-25T23:51:14.507Z,6.75
2023-05-25T23:53:41.006Z,9.57
2023-05-25T23:56:07.446Z,7.35
2023-05-25T23:58:33.881Z,7.13
